Time;durP1;ratioP1;P1;durP2;ratioP2;P2;SDS_P1;SDS_P2;PMS_P1;PMS_P2;Temp;Humidity;BMP_temperature;BMP_pressure;BME280_temperature;BME280_humidity;BME280_pressure;Samples;Min_cycle;Max_cycle;Signal;HPM_P1;HPM_P2
2022/06/18 00:01:35;;;;;;;6.07;3.00;;;21.10;99.90;;;;;;5037182;28;20786;-92
2022/06/18 00:04:05;;;;;;;3.93;3.40;;;21.00;99.90;;;;;;5054380;28;20406;-92
2022/06/18 00:06:34;;;;;;;4.10;3.67;;;21.00;99.90;;;;;;5054446;28;20444;-92
2022/06/18 00:09:01;;;;;;;3.40;2.80;;;21.00;99.90;;;;;;5037172;28;20459;-91
2022/06/18 00:14:12;;;;;;;5.00;4.13;;;21.00;99.90;;;;;;5054964;28;20411;-92
2022/06/18 00:16:38;;;;;;;3.70;3.33;;;20.90;99.90;;;;;;5054455;28;20548;-92
2022/06/18 00:19:03;;;;;;;3.60;3.30;;;20.80;99.90;;;;;;5054495;28;20409;-92
2022/06/18 00:21:29;;;;;;;3.90;2.73;;;20.80;99.90;;;;;;5036863;28;20442;-92
2022/06/18 00:23:55;;;;;;;4.10;3.80;;;20.80;99.90;;;;;;5054434;28;20181;-90
2022/06/18 00:26:21;;;;;;;6.00;3.30;;;20.70;99.90;;;;;;5036622;28;20220;-92
2022/06/18 00:28:47;;;;;;;4.13;3.73;;;20.70;99.90;;;;;;5054420;28;20235;-91
2022/06/18 00:31:13;;;;;;;4.00;3.50;;;20.60;99.90;;;;;;5037053;28;20493;-92
2022/06/18 00:33:41;;;;;;;5.20;3.87;;;20.60;99.90;;;;;;5056989;28;20246;-91
2022/06/18 00:36:14;;;;;;;3.90;3.20;;;20.60;99.90;;;;;;5058047;28;20488;-91
2022/06/18 00:38:43;;;;;;;7.13;3.70;;;20.50;99.90;;;;;;5063690;28;20407;-91
2022/06/18 00:41:15;;;;;;;3.90;3.50;;;20.50;99.90;;;;;;5049822;28;20754;-91
2022/06/18 00:44:05;;;;;;;4.60;3.50;;;20.50;99.90;;;;;;5045395;28;20445;-92
2022/06/18 00:47:01;;;;;;;4.27;3.30;;;20.40;99.90;;;;;;5036359;28;20442;-92
2022/06/18 00:49:42;;;;;;;4.20;3.60;;;20.40;99.90;;;;;;5041149;28;20433;-92
2022/06/18 00:52:27;;;;;;;3.90;3.53;;;20.30;99.90;;;;;;5044991;28;20529;-91
2022/06/18 00:55:28;;;;;;;4.20;3.67;;;20.30;99.90;;;;;;5039582;28;20441;-92
2022/06/18 00:58:02;;;;;;;5.33;4.13;;;20.20;99.90;;;;;;5054206;28;20480;-91
2022/06/18 01:00:38;;;;;;;3.97;3.57;;;20.20;99.90;;;;;;5038349;28;20429;-92
2022/06/18 01:03:05;;;;;;;3.73;3.30;;;20.20;99.90;;;;;;5040212;28;20457;-92
2022/06/18 01:05:39;;;;;;;4.10;3.67;;;20.10;99.90;;;;;;5039925;28;20428;-91
2022/06/18 01:08:17;;;;;;;6.47;4.10;;;20.10;99.90;;;;;;5057837;28;20436;-92
2022/06/18 01:10:48;;;;;;;3.97;3.67;;;20.10;99.90;;;;;;5040016;28;20455;-92
2022/06/18 01:13:18;;;;;;;5.40;3.67;;;20.10;99.90;;;;;;5040003;28;20444;-92
2022/06/18 01:15:46;;;;;;;4.30;3.90;;;20.00;99.90;;;;;;5039960;28;20495;-92
2022/06/18 01:18:13;;;;;;;5.37;4.17;;;20.00;99.90;;;;;;5057849;28;20526;-92
2022/06/18 01:20:49;;;;;;;4.50;3.83;;;20.00;99.90;;;;;;5039516;28;20515;-91
2022/06/18 01:23:25;;;;;;;4.77;4.27;;;19.90;99.90;;;;;;5039498;28;20492;-93
2022/06/18 01:25:52;;;;;;;4.57;4.13;;;19.90;99.90;;;;;;5040341;28;20466;-91
2022/06/18 01:28:18;;;;;;;5.87;4.67;;;19.90;99.90;;;;;;5042679;28;20443;-92
2022/06/18 01:30:45;;;;;;;4.60;4.10;;;19.90;99.90;;;;;;5039606;28;20488;-91
2022/06/18 01:33:12;;;;;;;5.20;3.93;;;19.90;99.90;;;;;;5039201;28;20495;-92
2022/06/18 01:35:43;;;;;;;8.43;4.63;;;19.80;99.90;;;;;;5057161;28;20754;-91
2022/06/18 01:38:11;;;;;;;5.03;4.20;;;19.80;99.90;;;;;;5039787;28;20491;-91
2022/06/18 01:40:55;;;;;;;4.97;4.47;;;19.80;99.90;;;;;;5039675;28;20988;-91
2022/06/18 01:43:23;;;;;;;7.20;5.10;;;19.70;99.90;;;;;;5068027;28;20764;-91
2022/06/18 01:45:56;;;;;;;8.53;4.30;;;19.80;99.90;;;;;;5055422;28;20448;-92
2022/06/18 01:48:30;;;;;;;4.33;3.93;;;19.70;99.90;;;;;;5057388;28;20439;-91
2022/06/18 01:51:03;;;;;;;5.43;4.93;;;19.70;99.90;;;;;;5039302;28;20555;-91
2022/06/18 01:53:39;;;;;;;5.83;4.47;;;19.70;99.90;;;;;;5057693;28;20490;-92
2022/06/18 01:56:19;;;;;;;5.07;4.57;;;19.60;99.90;;;;;;5057069;28;20431;-91
2022/06/18 01:58:52;;;;;;;4.60;4.20;;;19.60;99.90;;;;;;5056972;28;20464;-92
2022/06/18 02:01:25;;;;;;;6.50;4.10;;;19.60;99.90;;;;;;5038864;28;20404;-91
2022/06/18 02:03:54;;;;;;;5.60;4.60;;;19.60;99.90;;;;;;5038974;28;20429;-91
2022/06/18 02:06:20;;;;;;;8.53;4.80;;;19.60;99.90;;;;;;5042203;28;20416;-91
2022/06/18 02:08:46;;;;;;;6.47;4.80;;;19.60;99.90;;;;;;5038956;28;20419;-92
2022/06/18 02:11:15;;;;;;;5.03;4.53;;;19.60;99.90;;;;;;5038768;28;20412;-92
2022/06/18 02:13:50;;;;;;;5.73;5.07;;;19.50;99.90;;;;;;5056667;28;20416;-91
2022/06/18 02:16:19;;;;;;;6.40;4.70;;;19.60;99.90;;;;;;5038858;28;20415;-91
2022/06/18 02:18:47;;;;;;;5.03;4.40;;;19.50;99.90;;;;;;5038532;28;20825;-91
2022/06/18 02:21:15;;;;;;;4.93;3.90;;;19.50;99.90;;;;;;5041671;28;20417;-90
2022/06/18 02:23:41;;;;;;;6.53;5.37;;;19.50;99.90;;;;;;5066557;28;20409;-93
2022/06/18 02:26:08;;;;;;;6.70;5.17;;;19.50;99.90;;;;;;5038377;28;20432;-91
2022/06/18 02:28:41;;;;;;;7.40;5.33;;;19.50;99.90;;;;;;5038358;28;20420;-92
2022/06/18 02:31:13;;;;;;;8.00;5.37;;;19.40;99.90;;;;;;5056019;28;20407;-92
2022/06/18 02:34:04;;;;;;;5.60;4.20;;;19.40;99.90;;;;;;5038566;28;20437;-91
2022/06/18 02:36:34;;;;;;;7.00;4.77;;;19.40;99.90;;;;;;5055084;28;20513;-91
2022/06/18 02:39:24;;;;;;;7.40;6.03;;;19.40;99.90;;;;;;5056016;28;20444;-92
2022/06/18 02:41:55;;;;;;;8.10;5.03;;;19.40;99.90;;;;;;5038759;28;20534;-92
2022/06/18 02:44:21;;;;;;;9.47;6.20;;;19.30;99.90;;;;;;5038189;28;20432;-91
2022/06/18 02:46:47;;;;;;;5.93;4.70;;;19.30;99.90;;;;;;5055770;28;20435;-91
2022/06/18 02:49:14;;;;;;;6.67;4.93;;;19.30;99.90;;;;;;5057307;28;20497;-90
2022/06/18 02:51:44;;;;;;;9.67;5.77;;;19.30;99.90;;;;;;5057169;28;20424;-91
2022/06/18 02:54:10;;;;;;;6.07;4.93;;;19.30;99.90;;;;;;5039856;28;20780;-92
2022/06/18 02:56:36;;;;;;;8.07;6.10;;;19.30;99.90;;;;;;5058546;28;20450;-91
2022/06/18 02:59:04;;;;;;;9.47;5.57;;;19.30;99.90;;;;;;5040833;28;20473;-92
2022/06/18 03:01:32;;;;;;;5.43;4.93;;;19.30;99.90;;;;;;5037864;28;20730;-91
2022/06/18 03:03:59;;;;;;;6.37;5.40;;;19.20;99.90;;;;;;5055675;28;20423;-91
2022/06/18 03:06:28;;;;;;;7.83;6.07;;;19.20;99.90;;;;;;5037848;28;20466;-92
2022/06/18 03:08:55;;;;;;;6.77;5.77;;;19.20;99.90;;;;;;5037794;28;20455;-91
2022/06/18 03:14:07;;;;;;;5.97;5.37;;;19.20;99.90;;;;;;5055542;28;20768;-91
2022/06/18 03:16:33;;;;;;;8.10;5.37;;;19.10;99.90;;;;;;5055143;28;20452;-91
2022/06/18 03:18:59;;;;;;;7.00;4.80;;;19.10;99.90;;;;;;5055383;28;20850;-91
2022/06/18 03:21:34;;;;;;;6.70;5.63;;;19.10;99.90;;;;;;5037336;28;20437;-93
2022/06/18 03:24:00;;;;;;;7.80;6.00;;;19.10;99.90;;;;;;5054668;28;20429;-92
2022/06/18 03:26:26;;;;;;;6.53;5.40;;;19.10;99.90;;;;;;5037197;28;20435;-92
2022/06/18 03:28:52;;;;;;;5.40;4.83;;;19.10;99.90;;;;;;5037427;28;20415;-91
2022/06/18 03:31:18;;;;;;;5.50;5.00;;;19.10;99.90;;;;;;5036932;28;20408;-91
2022/06/18 03:33:46;;;;;;;6.30;5.70;;;19.10;99.90;;;;;;5053914;28;20435;-90
2022/06/18 03:36:14;;;;;;;7.60;5.30;;;19.10;99.90;;;;;;5055721;28;20755;-92
2022/06/18 03:38:40;;;;;;;6.40;5.07;;;19.10;99.90;;;;;;5038446;28;20498;-91
2022/06/18 03:41:08;;;;;;;6.23;5.63;;;19.10;99.90;;;;;;5040271;28;20800;-92
2022/06/18 03:43:34;;;;;;;6.57;5.57;;;19.10;99.90;;;;;;5036958;28;20205;-91
2022/06/18 03:46:10;;;;;;;7.73;5.50;;;19.10;99.90;;;;;;5037113;28;20426;-91
2022/06/18 03:48:53;;;;;;;9.07;6.33;;;19.10;99.90;;;;;;5037151;28;20882;-92
2022/06/18 03:51:20;;;;;;;7.37;5.70;;;19.10;99.90;;;;;;5054478;28;20392;-91
2022/06/18 03:53:46;;;;;;;6.07;5.10;;;19.10;99.90;;;;;;5054518;28;20400;-92
2022/06/18 03:56:15;;;;;;;7.70;5.47;;;19.10;99.90;;;;;;5036983;28;20466;-92
2022/06/18 03:58:41;;;;;;;6.33;5.40;;;19.20;99.90;;;;;;5036884;28;20530;-92
2022/06/18 04:01:08;;;;;;;9.27;6.17;;;19.20;99.90;;;;;;5036815;28;20931;-92
2022/06/18 04:03:34;;;;;;;7.50;5.63;;;19.10;99.90;;;;;;5036618;28;20423;-91
2022/06/18 04:05:59;;;;;;;6.30;5.67;;;19.20;99.90;;;;;;5036773;28;20477;-91
2022/06/18 04:08:25;;;;;;;6.93;5.70;;;19.20;99.90;;;;;;5037946;28;20186;-91
2022/06/18 04:10:51;;;;;;;6.33;5.73;;;19.20;99.90;;;;;;5042545;28;20177;-91
2022/06/18 04:13:17;;;;;;;7.37;5.50;;;19.20;99.90;;;;;;5054574;28;20293;-91
2022/06/18 04:15:42;;;;;;;6.53;5.30;;;19.20;99.90;;;;;;5057651;28;20404;-91
2022/06/18 04:18:12;;;;;;;5.77;5.20;;;19.20;99.90;;;;;;5051555;28;20487;-90
2022/06/18 04:20:38;;;;;;;8.00;5.53;;;19.20;99.90;;;;;;5036826;28;20476;-92
2022/06/18 04:23:05;;;;;;;6.90;5.93;;;19.20;99.90;;;;;;5037011;28;20454;-92
2022/06/18 04:25:31;;;;;;;6.77;5.93;;;19.20;99.90;;;;;;5037015;28;20181;-91
2022/06/18 04:27:57;;;;;;;7.50;5.97;;;19.20;99.90;;;;;;5036987;28;20464;-92
2022/06/18 04:30:25;;;;;;;12.03;6.17;;;19.30;99.90;;;;;;5054300;28;20457;-92
2022/06/18 04:32:51;;;;;;;6.97;5.63;;;19.30;99.90;;;;;;5053865;28;20482;-93
2022/06/18 04:35:17;;;;;;;8.67;5.90;;;19.30;99.90;;;;;;5040288;28;20492;-91
2022/06/18 04:37:44;;;;;;;5.30;4.80;;;19.30;99.90;;;;;;5058380;28;20578;-92
2022/06/18 04:40:16;;;;;;;7.53;5.53;;;19.40;99.90;;;;;;5041084;28;20183;-91
2022/06/18 04:42:42;;;;;;;5.57;4.50;;;19.40;99.90;;;;;;5058175;28;20472;-91
2022/06/18 04:45:08;;;;;;;5.37;4.87;;;19.40;99.90;;;;;;5040928;28;20423;-92
2022/06/18 04:47:35;;;;;;;7.40;5.63;;;19.50;99.90;;;;;;5043061;28;20443;-91
2022/06/18 04:50:01;;;;;;;7.17;4.97;;;19.60;99.90;;;;;;5043557;28;20462;-91
2022/06/18 04:52:27;;;;;;;5.50;5.00;;;19.60;99.90;;;;;;5041351;28;20514;-92
2022/06/18 04:54:53;;;;;;;5.83;4.40;;;19.60;99.90;;;;;;5040426;28;20460;-92
2022/06/18 04:57:20;;;;;;;6.37;5.13;;;19.70;99.90;;;;;;5058297;28;20219;-91
2022/06/18 04:59:46;;;;;;;5.70;4.37;;;19.70;99.90;;;;;;5044990;28;20440;-90
2022/06/18 05:02:38;;;;;;;10.53;5.30;;;19.80;99.90;;;;;;5046188;28;20461;-93
2022/06/18 05:05:07;;;;;;;5.90;4.60;;;19.90;99.90;;;;;;5036321;28;20409;-92
2022/06/18 05:07:33;;;;;;;5.97;4.23;;;19.90;99.90;;;;;;5040183;28;20995;-91
2022/06/18 05:09:59;;;;;;;5.73;3.97;;;20.00;99.90;;;;;;5039905;28;20410;-91
2022/06/18 05:12:25;;;;;;;4.20;3.90;;;20.10;99.90;;;;;;5039684;28;20466;-91
2022/06/18 05:14:51;;;;;;;4.73;4.13;;;20.20;99.90;;;;;;5039802;28;20898;-91
2022/06/18 05:17:21;;;;;;;4.87;3.20;;;20.20;99.90;;;;;;5039768;28;20574;-91
2022/06/18 05:19:47;;;;;;;4.80;4.40;;;20.30;99.90;;;;;;5040025;28;20633;-91
2022/06/18 05:22:13;;;;;;;3.63;3.33;;;20.40;99.90;;;;;;5057370;28;20867;-91
2022/06/18 05:24:39;;;;;;;3.67;3.37;;;20.40;99.90;;;;;;5039637;28;20430;-91
2022/06/18 05:27:05;;;;;;;3.40;3.10;;;20.50;99.90;;;;;;5039935;28;20476;-92
2022/06/18 05:29:32;;;;;;;4.20;3.80;;;20.60;99.90;;;;;;5039787;28;20409;-91
2022/06/18 05:31:58;;;;;;;3.37;3.07;;;20.70;99.90;;;;;;5039450;28;20485;-92
2022/06/18 05:34:24;;;;;;;4.13;3.10;;;20.70;99.90;;;;;;5057564;28;20493;-92
2022/06/18 05:36:49;;;;;;;4.13;3.73;;;20.80;99.90;;;;;;5039520;28;20891;-91
2022/06/18 05:39:20;;;;;;;4.03;3.50;;;20.90;99.90;;;;;;5040032;28;20182;-91
2022/06/18 05:41:46;;;;;;;3.53;3.10;;;21.00;99.90;;;;;;5042590;28;20446;-91
2022/06/18 05:44:11;;;;;;;3.57;3.10;;;21.00;99.90;;;;;;5057584;28;20417;-91
2022/06/18 05:46:37;;;;;;;3.17;2.70;;;21.10;99.90;;;;;;5038856;28;20300;-92
2022/06/18 05:49:03;;;;;;;3.50;3.03;;;21.20;99.90;;;;;;5039468;28;20255;-91
2022/06/18 05:51:29;;;;;;;3.33;3.03;;;21.20;99.90;;;;;;5039390;28;20816;-91
2022/06/18 05:53:54;;;;;;;2.63;2.43;;;21.30;99.90;;;;;;5056757;28;20259;-91
2022/06/18 05:56:20;;;;;;;3.77;2.97;;;21.40;99.90;;;;;;5039044;28;20616;-90
2022/06/18 05:58:46;;;;;;;6.50;3.33;;;21.40;99.90;;;;;;5056775;28;20205;-91
2022/06/18 06:01:12;;;;;;;3.30;2.90;;;21.50;99.90;;;;;;5056943;28;20170;-92
2022/06/18 06:03:38;;;;;;;3.33;3.03;;;21.60;99.90;;;;;;5056676;28;20178;-92
2022/06/18 06:06:03;;;;;;;3.80;3.30;;;21.60;99.90;;;;;;5038742;28;20713;-91
2022/06/18 06:08:30;;;;;;;3.30;2.97;;;21.70;99.90;;;;;;5056631;28;20257;-91
2022/06/18 06:13:39;;;;;;;3.00;2.80;;;21.80;99.90;;;;;;5057062;28;20429;-93
2022/06/18 06:16:05;;;;;;;3.80;2.97;;;21.90;99.90;;;;;;5038753;28;20422;-92
2022/06/18 06:18:32;;;;;;;2.60;2.40;;;22.00;99.90;;;;;;5056746;28;20301;-92
2022/06/18 06:20:59;;;;;;;3.20;3.00;;;22.00;99.90;;;;;;5056694;28;20245;-91
2022/06/18 06:23:25;;;;;;;3.53;2.70;;;22.10;99.90;;;;;;5042307;28;20765;-91
2022/06/18 06:25:51;;;;;;;3.27;3.07;;;22.20;99.90;;;;;;5040167;28;20407;-91
2022/06/18 06:28:23;;;;;;;4.13;2.80;;;22.20;99.90;;;;;;5038860;28;20798;-92
2022/06/18 06:30:50;;;;;;;2.63;2.43;;;22.30;99.90;;;;;;5038902;28;20177;-92
2022/06/18 06:33:16;;;;;;;2.80;2.60;;;22.30;99.90;;;;;;5038565;28;20489;-91
2022/06/18 06:35:45;;;;;;;3.70;3.00;;;22.40;99.90;;;;;;5038208;28;20423;-92
2022/06/18 06:38:12;;;;;;;3.20;2.30;;;22.40;99.90;;;;;;5038310;28;20820;-92
2022/06/18 06:40:41;;;;;;;2.60;2.40;;;22.50;99.90;;;;;;5038547;28;20407;-91
2022/06/18 06:43:07;;;;;;;2.93;2.57;;;22.50;99.90;;;;;;5038229;28;20463;-92
2022/06/18 06:45:35;;;;;;;5.50;2.83;;;22.60;99.90;;;;;;5038589;28;20476;-91
2022/06/18 06:48:01;;;;;;;3.00;2.80;;;22.70;99.90;;;;;;5038050;28;20569;-91
2022/06/18 06:50:28;;;;;;;5.67;3.10;;;22.70;99.90;;;;;;5038308;28;20404;-92
2022/06/18 06:52:55;;;;;;;3.60;2.90;;;22.80;99.90;;;;;;5038603;28;20990;-92
2022/06/18 06:58:16;;;;;;;3.53;2.77;;;22.90;99.90;;;;;;5070836;28;20562;-92
2022/06/18 07:00:45;;;;;;;2.70;2.07;;;23.00;99.90;;;;;;5054312;28;20418;-92
2022/06/18 07:03:13;;;;;;;2.27;2.07;;;23.10;99.90;;;;;;5044624;28;20460;-92
2022/06/18 07:05:39;;;;;;;2.60;2.40;;;23.10;99.90;;;;;;5055523;28;20914;-93
2022/06/18 07:08:05;;;;;;;2.27;2.07;;;23.20;99.90;;;;;;5056707;28;20450;-92
2022/06/18 07:10:31;;;;;;;3.13;2.83;;;23.20;99.90;;;;;;5044890;28;20429;-91
2022/06/18 07:12:56;;;;;;;4.50;2.70;;;23.30;99.90;;;;;;5037570;28;20443;-92
2022/06/18 07:15:22;;;;;;;3.67;2.40;;;23.30;99.90;;;;;;5037535;28;20281;-92
2022/06/18 07:17:48;;;;;;;2.50;2.30;;;23.30;99.90;;;;;;5055543;28;20222;-92
2022/06/18 07:20:19;;;;;;;3.00;2.80;;;23.30;99.90;;;;;;5055724;28;20162;-92
2022/06/18 07:22:45;;;;;;;2.80;2.60;;;23.40;99.90;;;;;;5037310;28;20701;-93
2022/06/18 07:25:13;;;;;;;2.33;2.13;;;23.40;99.90;;;;;;5037531;28;20824;-92
2022/06/18 07:27:39;;;;;;;2.67;2.20;;;23.40;99.90;;;;;;5037656;28;20463;-92
2022/06/18 07:30:08;;;;;;;2.60;2.40;;;23.50;99.90;;;;;;5055193;28;20412;-92
2022/06/18 07:32:36;;;;;;;2.93;2.70;;;23.50;99.90;;;;;;5037181;28;20477;-92
2022/06/18 07:35:03;;;;;;;3.47;2.53;;;23.60;99.90;;;;;;5037850;28;20510;-92
2022/06/18 07:37:29;;;;;;;3.30;2.80;;;23.60;99.90;;;;;;5037648;28;20507;-91
2022/06/18 07:39:55;;;;;;;3.30;3.00;;;23.60;99.90;;;;;;5037615;28;20416;-91
2022/06/18 07:42:22;;;;;;;3.70;1.90;;;23.70;99.90;;;;;;5038477;28;20502;-92
2022/06/18 07:44:48;;;;;;;2.83;2.63;;;23.70;99.90;;;;;;5039078;28;20170;-92
2022/06/18 07:47:17;;;;;;;2.33;2.13;;;23.80;99.90;;;;;;5041246;28;20461;-92
2022/06/18 07:49:45;;;;;;;2.90;2.40;;;23.80;99.90;;;;;;5038524;28;20321;-92
2022/06/18 07:52:15;;;;;;;2.57;2.37;;;23.80;99.90;;;;;;5073405;28;20440;-91
2022/06/18 07:54:42;;;;;;;2.30;2.10;;;23.80;99.90;;;;;;5036803;28;20850;-92
2022/06/18 07:57:08;;;;;;;2.47;2.03;;;23.90;99.90;;;;;;5036931;28;20514;-92
2022/06/18 07:59:34;;;;;;;2.40;2.20;;;23.90;99.90;;;;;;5037003;28;20409;-91
2022/06/18 08:02:00;;;;;;;2.40;2.20;;;24.00;99.90;;;;;;5036693;28;20456;-92
2022/06/18 08:04:26;;;;;;;2.40;2.00;;;24.00;99.90;;;;;;5036976;28;21020;-92
2022/06/18 08:06:53;;;;;;;2.67;2.47;;;24.10;99.90;;;;;;5036915;28;20452;-92
2022/06/18 08:09:19;;;;;;;2.37;2.17;;;24.10;99.90;;;;;;5054356;28;20944;-91
2022/06/18 08:11:45;;;;;;;2.07;1.87;;;24.10;99.90;;;;;;5036967;28;20491;-92
2022/06/18 08:14:11;;;;;;;2.57;2.27;;;24.10;99.90;;;;;;5054621;28;20826;-92
2022/06/18 08:16:37;;;;;;;2.90;2.70;;;24.10;99.90;;;;;;5054528;28;20558;-92
2022/06/18 08:19:03;;;;;;;4.07;3.13;;;24.20;99.90;;;;;;5036864;28;20416;-92
2022/06/18 08:21:36;;;;;;;1.97;1.87;;;24.20;99.90;;;;;;5036848;28;20206;-93
2022/06/18 08:24:06;;;;;;;2.50;2.13;;;24.20;99.90;;;;;;5036710;28;20629;-92
2022/06/18 08:26:33;;;;;;;1.90;1.80;;;24.20;99.90;;;;;;5036777;28;20439;-94
2022/06/18 08:29:02;;;;;;;2.03;1.83;;;24.30;99.90;;;;;;5054434;28;20409;-91
2022/06/18 08:31:28;;;;;;;1.83;1.73;;;24.30;99.90;;;;;;5054139;28;20953;-92
2022/06/18 08:33:54;;;;;;;1.90;1.80;;;24.30;99.90;;;;;;5036609;28;20412;-91
2022/06/18 08:36:21;;;;;;;2.07;1.93;;;24.40;99.90;;;;;;5037071;28;20498;-92
2022/06/18 08:38:48;;;;;;;2.00;1.90;;;24.40;99.90;;;;;;5044511;28;20489;-92
2022/06/18 08:41:38;;;;;;;2.20;2.00;;;24.40;99.90;;;;;;5039834;28;20498;-92
2022/06/18 08:44:22;;;;;;;2.00;1.80;;;24.50;99.90;;;;;;5068274;28;20407;-93
2022/06/18 08:46:57;;;;;;;2.10;1.90;;;24.60;99.90;;;;;;5050349;28;20459;-92
2022/06/18 08:49:53;;;;;;;2.40;1.83;;;24.60;99.90;;;;;;5036762;28;20455;-92
2022/06/18 08:52:41;;;;;;;1.90;1.80;;;24.60;99.90;;;;;;5046171;28;20441;-92
2022/06/18 08:55:41;;;;;;;2.07;1.67;;;24.60;99.90;;;;;;5050126;28;20418;-92
2022/06/18 08:58:19;;;;;;;1.73;1.63;;;24.60;99.90;;;;;;5056869;28;20980;-91
2022/06/18 09:01:03;;;;;;;2.10;2.00;;;24.60;99.90;;;;;;5054254;28;20444;-92
2022/06/18 09:03:45;;;;;;;1.67;1.57;;;24.70;99.90;;;;;;5036563;28;20516;-92
2022/06/18 09:06:26;;;;;;;2.50;1.80;;;24.70;99.90;;;;;;5054318;28;20419;-91
2022/06/18 09:09:15;;;;;;;1.73;1.63;;;24.70;99.90;;;;;;5036512;28;20421;-92
2022/06/18 09:12:11;;;;;;;2.10;1.50;;;24.70;99.90;;;;;;4987364;28;20983;-92
2022/06/18 09:14:44;;;;;;;2.60;1.90;;;24.80;99.90;;;;;;5032281;28;20398;-92
2022/06/18 09:17:26;;;;;;;1.70;1.60;;;24.90;99.90;;;;;;5014545;28;21002;-92
2022/06/18 09:20:26;;;;;;;2.20;2.10;;;25.10;99.90;;;;;;5032201;28;20505;-91
2022/06/18 09:22:55;;;;;;;2.10;1.90;;;25.00;99.90;;;;;;5035287;28;20803;-92
2022/06/18 09:25:31;;;;;;;2.43;1.73;;;25.10;99.10;;;;;;5034129;28;20410;-92
2022/06/18 09:28:04;;;;;;;1.50;1.40;;;25.10;99.90;;;;;;5023808;28;20677;-92
2022/06/18 09:30:40;;;;;;;2.00;1.80;;;25.10;99.90;;;;;;5038836;28;20562;-93
2022/06/18 09:33:10;;;;;;;1.87;1.73;;;25.20;99.90;;;;;;5033629;28;20473;-93
2022/06/18 09:35:51;;;;;;;1.87;1.77;;;25.20;99.90;;;;;;5056245;28;20390;-93
2022/06/18 09:38:35;;;;;;;1.50;1.40;;;25.30;99.90;;;;;;5037979;28;20539;-93
2022/06/18 09:41:07;;;;;;;1.80;1.70;;;25.40;98.90;;;;;;5037811;28;20422;-92
2022/06/18 09:43:38;;;;;;;1.63;1.53;;;25.50;98.80;;;;;;5057015;28;20489;-92
2022/06/18 09:46:14;;;;;;;1.70;1.60;;;25.50;99.90;;;;;;5043527;28;20449;-91
2022/06/18 09:48:42;;;;;;;2.43;1.73;;;25.50;99.90;;;;;;5063192;28;20430;-92
2022/06/18 09:51:29;;;;;;;2.17;1.97;;;25.60;99.90;;;;;;5041289;28;20423;-92
2022/06/18 09:54:01;;;;;;;2.27;2.10;;;25.60;99.90;;;;;;5039330;28;20433;-92
2022/06/18 09:56:32;;;;;;;2.90;2.70;;;25.70;99.50;;;;;;5056892;28;20798;-91
2022/06/18 09:59:03;;;;;;;3.30;2.77;;;25.80;99.50;;;;;;5058772;28;20446;-92
2022/06/18 10:01:45;;;;;;;3.67;1.90;;;25.90;99.40;;;;;;5041783;28;20462;-92
2022/06/18 10:07:17;;;;;;;2.57;1.90;;;25.90;98.30;;;;;;5056751;28;20438;-92
2022/06/18 10:09:54;;;;;;;1.90;1.70;;;25.90;99.50;;;;;;5039687;28;20931;-93
2022/06/18 10:12:35;;;;;;;4.30;3.70;;;26.00;99.30;;;;;;5050106;28;20523;-93
2022/06/18 10:15:06;;;;;;;1.70;1.60;;;26.00;99.00;;;;;;5039016;28;20411;-91
2022/06/18 10:18:05;;;;;;;2.90;2.00;;;26.00;99.20;;;;;;5039123;28;20478;-90
2022/06/18 10:20:46;;;;;;;4.10;1.60;;;25.90;99.50;;;;;;5038660;28;20521;-90
2022/06/18 10:23:23;;;;;;;2.20;1.70;;;25.90;99.30;;;;;;5038561;28;20450;-90
2022/06/18 10:26:15;;;;;;;2.30;1.90;;;25.90;99.40;;;;;;5038583;28;20424;-89
2022/06/18 10:28:43;;;;;;;2.30;1.73;;;25.80;99.60;;;;;;5056933;28;20415;-90
2022/06/18 10:31:44;;;;;;;2.03;1.93;;;25.80;99.50;;;;;;5055780;28;20411;-89
2022/06/18 10:34:20;;;;;;;1.63;1.53;;;25.80;99.40;;;;;;5038493;28;20431;-90
2022/06/18 10:37:09;;;;;;;2.00;1.70;;;25.80;99.20;;;;;;5038389;28;20529;-91
2022/06/18 10:40:05;;;;;;;1.97;1.73;;;25.80;99.50;;;;;;5038713;28;20450;-90
2022/06/18 10:43:01;;;;;;;1.50;1.40;;;25.80;99.50;;;;;;5042597;28;20504;-92
2022/06/18 10:45:55;;;;;;;2.50;2.10;;;25.80;99.50;;;;;;5062480;28;20409;-90
2022/06/18 10:48:26;;;;;;;2.57;2.37;;;25.90;99.10;;;;;;5056151;28;20469;-90
2022/06/18 10:50:55;;;;;;;3.43;2.33;;;25.90;99.00;;;;;;5039137;28;20448;-88
2022/06/18 10:53:24;;;;;;;2.87;2.13;;;25.80;99.30;;;;;;5054419;28;20445;-89
2022/06/18 10:56:06;;;;;;;2.70;2.50;;;25.90;99.00;;;;;;5037940;28;20415;-92
2022/06/18 10:58:32;;;;;;;2.23;2.07;;;25.90;99.60;;;;;;5064867;28;20582;-92
2022/06/18 11:01:01;;;;;;;2.27;2.07;;;26.00;99.40;;;;;;5039009;28;20422;-91
2022/06/18 11:03:30;;;;;;;8.20;6.47;;;26.00;97.60;;;;;;5056513;28;20480;-90
2022/06/18 11:05:59;;;;;;;192.00;119.17;;;26.00;98.20;;;;;;5055793;28;20494;-90
2022/06/18 11:08:26;;;;;;;9.27;6.60;;;26.00;99.40;;;;;;5037872;28;20813;-90
2022/06/18 11:11:14;;;;;;;5.40;3.50;;;26.00;98.80;;;;;;5054422;28;20846;-93
2022/06/18 11:13:44;;;;;;;3.17;2.20;;;26.00;99.40;;;;;;5055826;28;20407;-91
2022/06/18 11:16:14;;;;;;;5.23;2.07;;;26.10;98.70;;;;;;5062387;28;20791;-90
2022/06/18 11:18:50;;;;;;;2.80;2.10;;;26.20;96.50;;;;;;5050261;28;20469;-93
2022/06/18 11:21:33;;;;;;;2.60;2.23;;;26.20;98.80;;;;;;5038868;28;20923;-89
2022/06/18 11:24:01;;;;;;;2.10;2.00;;;26.20;99.50;;;;;;5036738;28;20419;-89
2022/06/18 11:26:29;;;;;;;2.10;2.00;;;26.30;98.40;;;;;;5055462;28;20422;-91
2022/06/18 11:29:01;;;;;;;2.73;2.17;;;26.30;98.60;;;;;;5037482;28;20426;-90
2022/06/18 11:31:35;;;;;;;2.20;2.00;;;26.30;99.00;;;;;;5054389;28;20430;-90
2022/06/18 11:34:05;;;;;;;2.37;2.00;;;26.20;99.60;;;;;;5036992;28;20468;-91
2022/06/18 11:36:46;;;;;;;2.03;1.93;;;26.20;99.90;;;;;;5046566;28;20516;-92
2022/06/18 11:39:31;;;;;;;4.80;1.90;;;26.20;99.40;;;;;;5030748;28;20428;-91
2022/06/18 11:42:03;;;;;;;1.93;1.83;;;26.20;99.90;;;;;;5047942;28;20455;-92
2022/06/18 11:44:38;;;;;;;1.90;1.70;;;26.20;99.90;;;;;;5052236;28;20500;-92
2022/06/18 11:47:19;;;;;;;2.30;2.20;;;26.20;99.90;;;;;;5044411;28;20480;-92
2022/06/18 11:50:01;;;;;;;1.77;1.67;;;26.30;98.50;;;;;;5075077;28;20403;-91
2022/06/18 11:52:55;;;;;;;2.10;1.80;;;26.30;99.00;;;;;;5055711;28;20474;-91
2022/06/18 11:55:25;;;;;;;4.37;2.03;;;26.40;98.20;;;;;;5037653;28;20423;-91
2022/06/18 11:58:17;;;;;;;2.50;2.30;;;26.40;97.70;;;;;;5054051;28;20539;-90
2022/06/18 12:00:58;;;;;;;2.50;2.13;;;26.30;99.90;;;;;;5054606;28;20911;-91
2022/06/18 12:03:41;;;;;;;2.13;1.93;;;26.30;99.60;;;;;;5035498;28;20454;-91
2022/06/18 12:06:26;;;;;;;2.60;2.40;;;26.30;98.90;;;;;;5053265;28;20402;-91
2022/06/18 12:08:52;;;;;;;3.30;2.10;;;26.30;99.80;;;;;;5035317;28;21002;-91
2022/06/18 12:11:31;;;;;;;2.67;2.17;;;26.40;98.40;;;;;;5048298;28;20542;-90
2022/06/18 12:14:15;;;;;;;1.63;1.53;;;26.40;98.70;;;;;;5055080;28;20430;-92
2022/06/18 12:16:50;;;;;;;2.00;1.87;;;26.40;99.50;;;;;;5033550;28;20640;-92
2022/06/18 12:19:30;;;;;;;2.63;1.70;;;26.40;99.60;;;;;;5037064;28;20430;-92
2022/06/18 12:22:13;;;;;;;1.90;1.80;;;26.50;97.00;;;;;;5056426;28;20451;-91
2022/06/18 12:24:44;;;;;;;1.73;1.63;;;26.40;98.40;;;;;;5036460;28;20411;-91
2022/06/18 12:27:24;;;;;;;1.97;1.77;;;26.40;99.30;;;;;;5054330;28;20533;-91
2022/06/18 12:29:56;;;;;;;1.63;1.53;;;26.40;99.70;;;;;;5037901;28;20415;-92
2022/06/18 12:32:46;;;;;;;1.93;1.77;;;26.50;97.30;;;;;;5037532;28;20993;-92
2022/06/18 12:35:30;;;;;;;1.80;1.70;;;26.40;99.90;;;;;;5035461;28;20454;-91
2022/06/18 12:38:08;;;;;;;2.60;2.40;;;26.30;99.90;;;;;;5036070;28;20524;-90
2022/06/18 12:55:51;;;;;;;1.57;1.47;;;26.30;99.90;;;;;;5157122;22;26575207;-66
2022/06/18 12:58:41;;;;;;;2.20;2.00;;;26.90;98.90;;;;;;6299139;22;20586;-93
2022/06/18 13:01:33;;;;;;;2.63;1.60;;;26.70;99.90;;;;;;6290817;22;20380;-93
2022/06/18 13:04:33;;;;;;;2.00;1.90;;;26.70;99.90;;;;;;6298896;22;20403;-93
2022/06/18 13:07:10;;;;;;;1.40;1.30;;;26.70;99.90;;;;;;6295300;22;20418;-91
2022/06/18 13:10:05;;;;;;;1.83;1.50;;;26.70;99.90;;;;;;6292216;22;20463;-94
2022/06/18 13:12:41;;;;;;;1.60;1.50;;;26.70;99.90;;;;;;6310029;22;20903;-93
2022/06/18 13:15:27;;;;;;;1.80;1.70;;;26.80;96.80;;;;;;6292940;22;20476;-92
2022/06/18 13:17:59;;;;;;;2.30;2.10;;;26.80;98.70;;;;;;6294557;22;20454;-93
2022/06/18 13:20:36;;;;;;;1.80;1.70;;;26.80;99.90;;;;;;6288123;22;20736;-92
2022/06/18 13:28:10;;;;;;;2.10;1.80;;;26.90;96.90;;;;;;6316507;22;20739;-92
2022/06/18 13:28:42;;;;;;;1.60;1.50;;;26.90;99.00;;;;;;6320926;22;20360;-92
2022/06/18 13:31:38;;;;;;;1.67;1.57;;;26.90;99.60;;;;;;6291368;22;20376;-89
2022/06/18 13:34:15;;;;;;;1.77;1.67;;;26.90;99.90;;;;;;6290773;22;20441;-90
2022/06/18 13:36:55;;;;;;;1.77;1.67;;;26.90;95.80;;;;;;6292045;22;20423;-91
2022/06/18 13:39:27;;;;;;;1.57;1.47;;;27.00;97.40;;;;;;6291844;22;20380;-91
2022/06/18 13:42:15;;;;;;;1.63;1.53;;;27.10;97.80;;;;;;6316999;22;20435;-92
2022/06/18 13:44:41;;;;;;;1.40;1.30;;;27.20;94.10;;;;;;6288548;22;20760;-92